createdAt,value
2022-11-16T00:01:44.178Z,137.60
2022-11-16T00:04:13.183Z,135.27
2022-11-16T00:06:41.222Z,147.90
2022-11-16T00:09:25.288Z,145.53
2022-11-16T00:11:53.885Z,148.53
2022-11-16T00:14:22.363Z,166.17
2022-11-16T00:16:50.547Z,159.33
2022-11-16T00:19:18.646Z,153.13
2022-11-16T00:21:46.504Z,154.63
2022-11-16T00:24:16.443Z,201.10
2022-11-16T00:26:44.560Z,126.13
2022-11-16T00:29:15.672Z,166.17
2022-11-16T00:31:43.566Z,208.77
2022-11-16T00:34:11.294Z,183.37
2022-11-16T00:36:39.464Z,152.77
2022-11-16T00:39:07.624Z,195.63
2022-11-16T00:41:36.693Z,192.87
2022-11-16T00:44:06.644Z,169.70
2022-11-16T00:46:34.966Z,156.60
2022-11-16T00:49:03.100Z,177.67
2022-11-16T00:51:31.506Z,146.53
2022-11-16T00:54:01.067Z,176.80
2022-11-16T00:56:28.759Z,134.97
2022-11-16T00:58:58.172Z,160.67
2022-11-16T01:01:26.101Z,210.77
2022-11-16T01:03:53.891Z,181.10
2022-11-16T01:06:23.488Z,213.13
2022-11-16T01:08:51.560Z,164.20
2022-11-16T01:11:37.580Z,123.03
2022-11-16T01:14:09.070Z,128.07
2022-11-16T01:16:37.683Z,145.67
2022-11-16T01:19:05.478Z,137.43
2022-11-16T01:21:35.862Z,126.17
2022-11-16T01:24:03.903Z,116.60
2022-11-16T01:26:31.644Z,123.47
2022-11-16T01:28:59.974Z,216.30
2022-11-16T01:31:29.871Z,217.13
2022-11-16T01:33:57.996Z,154.77
2022-11-16T01:36:26.021Z,160.20
2022-11-16T01:38:54.087Z,148.57
2022-11-16T01:41:22.716Z,135.77
2022-11-16T01:43:52.208Z,222.63
2022-11-16T01:46:20.492Z,175.90
2022-11-16T01:48:50.817Z,241.80
2022-11-16T01:51:18.847Z,173.73
2022-11-16T01:53:46.582Z,192.93
2022-11-16T01:56:14.601Z,166.73
2022-11-16T01:58:44.183Z,214.37
2022-11-16T02:01:11.986Z,175.83
2022-11-16T02:03:40.628Z,191.37
2022-11-16T02:06:31.708Z,149.90
2022-11-16T02:09:22.205Z,118.43
2022-11-16T02:12:05.221Z,215.43
2022-11-16T02:14:38.825Z,179.07
2022-11-16T02:17:17.633Z,164.90
2022-11-16T02:19:57.999Z,283.73
2022-11-16T02:22:34.324Z,194.10
2022-11-16T02:25:04.460Z,184.80
2022-11-16T02:27:46.418Z,150.30
2022-11-16T02:30:17.533Z,185.60
2022-11-16T02:32:48.931Z,152.37
2022-11-16T02:35:19.968Z,138.67
2022-11-16T02:37:51.611Z,199.07
2022-11-16T02:40:20.661Z,230.67
2022-11-16T02:42:51.243Z,134.73
2022-11-16T02:45:22.897Z,91.23
2022-11-16T02:47:53.911Z,270.53
2022-11-16T02:50:23.433Z,172.03
2022-11-16T02:52:51.274Z,129.03
2022-11-16T02:55:18.978Z,171.60
2022-11-16T02:57:50.448Z,192.77
2022-11-16T03:00:22.718Z,164.40
2022-11-16T03:03:05.204Z,147.23
2022-11-16T03:05:35.398Z,188.03
2022-11-16T03:08:14.139Z,252.20
2022-11-16T03:11:00.420Z,148.67
2022-11-16T03:13:30.343Z,147.87
2022-11-16T03:16:01.719Z,271.20
2022-11-16T03:18:30.341Z,132.73
2022-11-16T03:21:03.558Z,188.37
2022-11-16T03:23:31.382Z,156.17
2022-11-16T03:25:59.268Z,197.67
2022-11-16T03:28:32.385Z,176.40
2022-11-16T03:31:07.091Z,155.73
2022-11-16T03:33:36.790Z,170.20
2022-11-16T03:36:06.481Z,145.37
2022-11-16T03:38:36.170Z,219.27
2022-11-16T03:41:08.170Z,178.73
2022-11-16T03:43:36.567Z,179.60
2022-11-16T03:46:07.821Z,108.73
2022-11-16T03:48:36.870Z,176.53
2022-11-16T03:51:05.445Z,131.23
2022-11-16T03:53:33.150Z,119.77
2022-11-16T03:56:01.648Z,144.43
2022-11-16T03:58:29.572Z,171.17
2022-11-16T04:01:00.417Z,86.97
2022-11-16T04:03:30.089Z,141.80
2022-11-16T04:06:15.634Z,120.93
2022-11-16T04:09:00.799Z,122.20
2022-11-16T04:11:46.204Z,143.50
2022-11-16T04:14:32.457Z,140.80
2022-11-16T04:17:18.441Z,129.57
2022-11-16T04:20:05.685Z,118.70
2022-11-16T04:22:53.048Z,141.30
2022-11-16T04:25:22.696Z,131.87
2022-11-16T04:28:08.414Z,99.43
2022-11-16T04:30:50.595Z,69.30
2022-11-16T04:33:37.211Z,129.03
2022-11-16T04:36:25.883Z,82.37
2022-11-16T04:38:53.773Z,106.23
2022-11-16T04:41:39.414Z,152.77
2022-11-16T04:44:07.158Z,118.13
2022-11-16T04:46:52.582Z,129.90
2022-11-16T04:49:20.266Z,109.67
2022-11-16T04:51:49.942Z,113.50
2022-11-16T04:54:17.978Z,94.23
2022-11-16T04:56:45.973Z,105.93
2022-11-16T04:59:16.310Z,84.63
2022-11-16T05:02:01.718Z,81.73
2022-11-16T05:04:29.572Z,110.30
2022-11-16T05:06:59.199Z,132.03
2022-11-16T05:09:28.144Z,94.07
2022-11-16T05:11:56.685Z,119.70
2022-11-16T05:14:24.301Z,103.50
2022-11-16T05:16:52.153Z,143.37
2022-11-16T05:19:37.099Z,149.33
2022-11-16T05:22:08.531Z,135.90
2022-11-16T05:24:35.384Z,152.70
2022-11-16T05:27:03.600Z,83.33
2022-11-16T05:29:32.994Z,112.70
2022-11-16T05:32:01.948Z,103.40
2022-11-16T05:34:31.720Z,197.33
2022-11-16T05:37:00.003Z,99.23
2022-11-16T05:39:29.413Z,118.03
2022-11-16T05:41:57.799Z,148.00
2022-11-16T05:44:25.860Z,105.47
2022-11-16T05:46:55.474Z,100.23
2022-11-16T05:49:23.977Z,105.53
2022-11-16T05:51:52.013Z,99.90
2022-11-16T05:54:21.841Z,94.40
2022-11-16T05:56:51.257Z,108.30
2022-11-16T05:59:21.381Z,102.90
2022-11-16T06:01:49.159Z,93.00
2022-11-16T06:04:24.785Z,96.87
2022-11-16T06:06:52.917Z,93.87
2022-11-16T06:09:21.360Z,91.60
2022-11-16T06:11:50.752Z,86.33
2022-11-16T06:14:18.995Z,93.13
2022-11-16T06:16:46.726Z,86.50
2022-11-16T06:19:14.540Z,84.50
2022-11-16T06:21:42.332Z,105.70
2022-11-16T06:24:10.165Z,108.13
2022-11-16T06:26:38.337Z,102.43
2022-11-16T06:29:07.707Z,96.67
2022-11-16T06:31:36.631Z,101.80
2022-11-16T06:34:04.485Z,79.40
2022-11-16T06:36:32.314Z,105.10
2022-11-16T06:39:01.341Z,98.40
2022-11-16T06:41:29.125Z,101.00
2022-11-16T06:43:57.457Z,100.43
2022-11-16T06:46:26.745Z,93.93
2022-11-16T06:48:54.988Z,85.80
2022-11-16T06:51:22.844Z,88.53
2022-11-16T06:56:38.400Z,79.50
2022-11-16T06:59:06.292Z,83.07
2022-11-16T07:01:35.465Z,75.90
2022-11-16T07:04:03.659Z,74.57
2022-11-16T07:06:32.623Z,68.37
2022-11-16T07:09:01.489Z,74.33
2022-11-16T07:11:29.511Z,89.20
2022-11-16T07:13:57.274Z,83.50
2022-11-16T07:16:27.887Z,79.33
2022-11-16T07:18:59.325Z,72.50
2022-11-16T07:21:27.065Z,85.87
2022-11-16T07:23:56.256Z,81.47
2022-11-16T07:26:25.156Z,73.80
2022-11-16T07:28:54.568Z,76.47
2022-11-16T07:31:22.593Z,68.60
2022-11-16T07:33:50.559Z,84.10
2022-11-16T07:36:19.678Z,73.57
2022-11-16T07:38:47.422Z,68.17
2022-11-16T07:41:16.474Z,65.87
2022-11-16T07:43:49.921Z,75.40
2022-11-16T07:46:46.431Z,74.17
2022-11-16T07:49:14.026Z,77.33
2022-11-16T07:51:43.451Z,86.90
2022-11-16T07:54:12.560Z,69.67
2022-11-16T07:56:40.347Z,76.90
2022-11-16T07:59:08.177Z,82.27
2022-11-16T08:01:36.595Z,75.13
2022-11-16T08:04:04.767Z,69.57
2022-11-16T08:06:33.167Z,93.23
2022-11-16T08:09:02.717Z,81.80
2022-11-16T08:11:30.516Z,70.47
2022-11-16T08:13:58.726Z,68.40
2022-11-16T08:16:26.900Z,68.97
2022-11-16T08:18:55.413Z,80.80
2022-11-16T08:21:24.457Z,78.30
2022-11-16T08:23:58.143Z,64.57
2022-11-16T08:26:28.500Z,66.60
2022-11-16T08:28:57.363Z,63.47
2022-11-16T08:31:28.281Z,70.80
2022-11-16T08:33:56.765Z,79.00
2022-11-16T08:36:24.960Z,83.00
2022-11-16T08:38:53.564Z,78.43
2022-11-16T08:41:23.488Z,93.33
2022-11-16T08:43:53.598Z,96.57
2022-11-16T08:46:21.947Z,88.50
2022-11-16T08:48:50.222Z,92.70
2022-11-16T08:51:20.900Z,91.87
2022-11-16T08:53:49.456Z,89.03
2022-11-16T08:56:18.105Z,71.20
2022-11-16T08:58:47.390Z,74.87
2022-11-16T09:01:17.913Z,82.83
2022-11-16T09:03:47.638Z,71.83
2022-11-16T09:06:16.099Z,85.10
2022-11-16T09:08:44.805Z,71.87
2022-11-16T09:11:14.687Z,68.80
2022-11-16T09:13:42.781Z,70.53
2022-11-16T09:16:10.617Z,69.63
2022-11-16T09:18:39.791Z,76.40
2022-11-16T09:21:08.235Z,74.30
2022-11-16T09:23:36.792Z,64.60
2022-11-16T09:26:05.333Z,72.93
2022-11-16T09:28:34.013Z,76.83
2022-11-16T09:31:03.205Z,66.80
2022-11-16T09:33:32.952Z,74.57
2022-11-16T09:36:07.259Z,70.60
2022-11-16T09:38:55.731Z,61.83
2022-11-16T09:41:53.263Z,63.47
2022-11-16T09:44:32.017Z,71.67
2022-11-16T09:47:01.308Z,57.10
2022-11-16T09:49:31.595Z,66.07
2022-11-16T09:54:49.208Z,72.30
2022-11-16T09:57:20.305Z,58.33
2022-11-16T09:59:50.352Z,59.43
2022-11-16T10:02:20.048Z,61.00
2022-11-16T10:04:57.967Z,54.57
2022-11-16T10:07:32.679Z,56.53
2022-11-16T10:10:01.210Z,55.93
2022-11-16T10:12:32.861Z,52.00
2022-11-16T10:15:19.968Z,43.27
2022-11-16T10:17:54.122Z,48.03
2022-11-16T10:20:36.840Z,49.53
2022-11-16T10:23:08.965Z,54.90
2022-11-16T10:25:40.350Z,55.60
2022-11-16T10:28:17.469Z,48.60
2022-11-16T10:30:50.436Z,56.07
2022-11-16T10:33:21.239Z,59.43
2022-11-16T10:35:52.270Z,56.37
2022-11-16T10:38:23.426Z,50.93
2022-11-16T10:40:53.804Z,56.77
2022-11-16T10:43:23.882Z,56.93
2022-11-16T10:45:53.643Z,47.07
2022-11-16T10:48:26.322Z,49.30
2022-11-16T10:50:55.273Z,43.80
2022-11-16T10:53:31.296Z,45.73
2022-11-16T10:56:04.730Z,36.00
2022-11-16T10:58:49.484Z,48.03
2022-11-16T11:01:28.327Z,44.40
2022-11-16T11:03:56.286Z,40.77
2022-11-16T11:06:26.732Z,40.57
2022-11-16T11:08:59.927Z,40.67
2022-11-16T11:11:45.154Z,42.00
2022-11-16T11:14:15.661Z,34.57
2022-11-16T11:16:44.002Z,38.97
2022-11-16T11:19:25.115Z,39.47
2022-11-16T11:21:57.091Z,40.57
2022-11-16T11:24:43.848Z,43.33
2022-11-16T11:27:13.203Z,39.57
2022-11-16T11:29:43.154Z,39.83
2022-11-16T11:32:20.842Z,43.00
2022-11-16T11:34:53.729Z,39.37
2022-11-16T11:37:22.980Z,38.53
2022-11-16T11:42:55.257Z,46.63
2022-11-16T11:45:26.353Z,37.37
2022-11-16T11:47:59.426Z,35.83
2022-11-16T11:50:33.778Z,39.63
2022-11-16T11:53:04.373Z,45.57
2022-11-16T11:55:34.213Z,41.40
2022-11-16T11:58:03.597Z,46.03
2022-11-16T12:00:38.305Z,47.00
2022-11-16T12:03:33.140Z,45.40
2022-11-16T12:06:24.267Z,40.17
2022-11-16T12:09:08.292Z,30.10
2022-11-16T12:11:43.902Z,46.90
2022-11-16T12:14:17.278Z,45.27
2022-11-16T12:16:48.561Z,45.03
2022-11-16T12:19:33.621Z,38.20
2022-11-16T12:22:10.968Z,41.67
2022-11-16T12:24:48.800Z,39.40
2022-11-16T12:27:27.325Z,36.57
2022-11-16T12:29:57.982Z,36.80
2022-11-16T12:32:41.910Z,35.90
2022-11-16T12:35:19.573Z,39.50
2022-11-16T12:37:52.182Z,32.87
2022-11-16T12:40:28.065Z,38.60
2022-11-16T12:43:01.121Z,37.87
2022-11-16T12:45:44.056Z,38.00
2022-11-16T12:48:29.803Z,39.20
2022-11-16T12:51:02.433Z,38.83
2022-11-16T12:53:45.993Z,40.60
2022-11-16T12:56:19.201Z,35.23
2022-11-16T12:58:55.111Z,40.13
2022-11-16T13:01:26.171Z,36.80
2022-11-16T13:03:55.127Z,33.77
2022-11-16T13:06:30.359Z,38.10
2022-11-16T13:09:02.727Z,31.83
2022-11-16T13:11:31.529Z,34.03
2022-11-16T13:14:02.233Z,30.97
2022-11-16T13:16:30.521Z,37.73
2022-11-16T13:18:59.374Z,37.60
2022-11-16T13:21:32.985Z,36.40
2022-11-16T13:24:08.028Z,42.93
2022-11-16T13:26:40.317Z,37.97
2022-11-16T13:29:13.445Z,39.47
2022-11-16T13:31:45.090Z,43.60
2022-11-16T13:34:15.517Z,38.93
2022-11-16T13:36:48.003Z,39.90
2022-11-16T13:39:21.970Z,34.63
2022-11-16T13:41:52.333Z,40.10
2022-11-16T13:44:26.475Z,43.47
2022-11-16T13:46:57.046Z,40.07
2022-11-16T13:49:31.109Z,33.83
2022-11-16T13:52:17.235Z,36.00
2022-11-16T13:54:50.348Z,38.27
2022-11-16T13:57:23.617Z,38.67
2022-11-16T13:59:57.968Z,37.17
2022-11-16T14:02:30.258Z,32.20
2022-11-16T14:04:59.290Z,37.80
2022-11-16T14:07:46.636Z,28.63
2022-11-16T14:10:37.763Z,27.40
2022-11-16T14:13:06.225Z,27.30
2022-11-16T14:15:36.710Z,25.67
2022-11-16T14:18:19.755Z,27.90
2022-11-16T14:20:56.942Z,32.70
2022-11-16T14:23:30.757Z,34.20
2022-11-16T14:26:07.657Z,34.47
2022-11-16T14:28:50.349Z,28.90
2022-11-16T14:31:22.868Z,36.07
2022-11-16T14:33:51.732Z,34.70
2022-11-16T14:36:35.089Z,34.60
2022-11-16T14:39:15.593Z,28.20
2022-11-16T14:41:45.571Z,35.17
2022-11-16T14:44:13.700Z,42.83
2022-11-16T14:46:43.179Z,43.63
2022-11-16T14:49:12.485Z,43.50
2022-11-16T14:51:44.143Z,41.53
2022-11-16T14:54:14.335Z,50.00
2022-11-16T14:56:56.694Z,42.30
2022-11-16T14:59:25.657Z,40.87
2022-11-16T15:01:57.825Z,38.90
2022-11-16T15:04:26.434Z,46.33
2022-11-16T15:06:56.437Z,46.47
2022-11-16T15:09:27.011Z,44.20
2022-11-16T15:12:12.541Z,40.03
2022-11-16T15:14:42.983Z,49.13
2022-11-16T15:17:17.522Z,34.37
2022-11-16T15:19:45.394Z,38.37
2022-11-16T15:22:18.907Z,48.07
2022-11-16T15:24:55.422Z,38.93
2022-11-16T15:27:33.556Z,42.80
2022-11-16T15:30:02.612Z,44.87
2022-11-16T15:32:38.129Z,42.50
2022-11-16T15:35:06.805Z,46.53
2022-11-16T15:37:34.555Z,42.73
2022-11-16T15:40:04.350Z,42.43
2022-11-16T15:42:33.203Z,38.13
2022-11-16T15:45:14.414Z,44.40
2022-11-16T15:47:46.946Z,50.47
2022-11-16T15:50:16.477Z,53.13
2022-11-16T15:52:44.940Z,43.87
2022-11-16T15:55:28.139Z,43.87
2022-11-16T15:58:14.044Z,40.07
2022-11-16T16:00:42.853Z,45.50
2022-11-16T16:03:20.542Z,38.07
2022-11-16T16:05:49.573Z,42.90
2022-11-16T16:08:28.656Z,44.70
2022-11-16T16:11:00.641Z,43.60
2022-11-16T16:13:30.113Z,48.77
2022-11-16T16:16:16.672Z,44.67
2022-11-16T16:18:46.990Z,38.13
2022-11-16T16:21:15.145Z,44.80
2022-11-16T16:23:46.952Z,44.57
2022-11-16T16:26:15.098Z,48.90
2022-11-16T16:28:42.984Z,47.07
2022-11-16T16:31:11.098Z,42.40
2022-11-16T16:33:40.690Z,46.20
2022-11-16T16:36:13.714Z,45.87
2022-11-16T16:38:41.881Z,46.13
2022-11-16T16:41:21.156Z,43.13
2022-11-16T16:43:53.058Z,44.93
2022-11-16T16:46:21.847Z,48.20
2022-11-16T16:48:49.722Z,43.70
2022-11-16T16:51:19.332Z,45.40
2022-11-16T16:53:47.207Z,44.50
2022-11-16T16:56:15.969Z,44.57
2022-11-16T16:58:43.931Z,49.50
2022-11-16T17:01:12.696Z,48.30
2022-11-16T17:03:40.745Z,49.10
2022-11-16T17:06:08.576Z,56.97
2022-11-16T17:08:39.209Z,50.00
2022-11-16T17:11:06.820Z,50.90
2022-11-16T17:13:35.775Z,52.77
2022-11-16T17:16:05.554Z,55.23
2022-11-16T17:18:33.476Z,59.60
2022-11-16T17:21:04.222Z,51.37
2022-11-16T17:23:32.402Z,55.60
2022-11-16T17:26:05.695Z,56.97
2022-11-16T17:28:33.554Z,61.73
2022-11-16T17:31:02.730Z,74.40
2022-11-16T17:33:34.278Z,63.17
2022-11-16T17:36:04.147Z,63.63
2022-11-16T17:38:31.976Z,73.10
2022-11-16T17:41:06.144Z,80.03
2022-11-16T17:43:34.412Z,86.70
2022-11-16T17:46:03.392Z,85.53
2022-11-16T17:48:32.743Z,82.50
2022-11-16T17:51:00.534Z,91.20
2022-11-16T17:53:32.458Z,80.83
2022-11-16T17:56:01.100Z,78.30
2022-11-16T17:58:32.303Z,77.27
2022-11-16T18:01:00.621Z,71.97
2022-11-16T18:03:28.482Z,84.10
2022-11-16T18:06:02.456Z,75.83
2022-11-16T18:08:30.757Z,81.30
2022-11-16T18:10:58.676Z,73.80
2022-11-16T18:13:26.644Z,80.77
2022-11-16T18:15:55.908Z,81.83
2022-11-16T18:18:23.811Z,81.63
2022-11-16T18:20:52.466Z,86.07
2022-11-16T18:23:20.362Z,81.07
2022-11-16T18:25:48.435Z,72.00
2022-11-16T18:28:18.451Z,74.70
2022-11-16T18:30:47.469Z,67.10
2022-11-16T18:33:17.427Z,77.03
2022-11-16T18:35:47.045Z,68.27
2022-11-16T18:38:15.063Z,64.93
2022-11-16T18:40:44.058Z,76.33
2022-11-16T18:43:13.724Z,77.73
2022-11-16T18:45:41.670Z,70.27
2022-11-16T18:48:09.985Z,68.90
2022-11-16T18:50:39.648Z,72.27
2022-11-16T18:53:07.489Z,70.90
2022-11-16T18:55:36.655Z,69.27
2022-11-16T18:58:17.538Z,62.77
2022-11-16T19:00:53.191Z,67.50
2022-11-16T19:03:21.080Z,74.03
2022-11-16T19:05:57.207Z,65.77
2022-11-16T19:08:25.739Z,64.70
2022-11-16T19:10:53.704Z,69.63
2022-11-16T19:13:21.828Z,63.63
2022-11-16T19:15:50.427Z,70.73
2022-11-16T19:18:22.182Z,64.37
2022-11-16T19:20:51.924Z,73.53
2022-11-16T19:23:19.789Z,71.93
2022-11-16T19:25:48.103Z,70.50
2022-11-16T19:28:16.256Z,83.40
2022-11-16T19:30:44.513Z,82.67
2022-11-16T19:33:12.525Z,78.77
2022-11-16T19:35:40.779Z,83.27
2022-11-16T19:38:10.070Z,80.30
2022-11-16T19:40:39.606Z,79.73
2022-11-16T19:43:07.786Z,57.50
2022-11-16T19:45:37.224Z,73.67
2022-11-16T19:48:07.425Z,82.60
2022-11-16T19:50:36.637Z,84.90
2022-11-16T19:53:05.479Z,78.47
2022-11-16T19:55:35.555Z,86.47
2022-11-16T19:58:03.615Z,84.40
2022-11-16T20:00:31.466Z,77.43
2022-11-16T20:02:59.277Z,68.30
2022-11-16T20:05:28.369Z,72.57
2022-11-16T20:07:57.359Z,58.83
2022-11-16T20:10:25.321Z,60.50
2022-11-16T20:12:56.844Z,50.33
2022-11-16T20:15:25.712Z,69.00
2022-11-16T20:17:54.050Z,66.30
2022-11-16T20:20:21.782Z,68.03
2022-11-16T20:22:50.773Z,67.77
2022-11-16T20:25:18.547Z,63.37
2022-11-16T20:27:46.719Z,59.30
2022-11-16T20:30:18.055Z,63.10
2022-11-16T20:32:46.651Z,60.23
2022-11-16T20:35:18.979Z,65.03
2022-11-16T20:37:47.419Z,62.07
2022-11-16T20:40:15.503Z,61.33
2022-11-16T20:42:43.412Z,63.47
2022-11-16T20:45:12.435Z,52.53
2022-11-16T20:47:42.008Z,57.90
2022-11-16T20:50:10.204Z,51.57
2022-11-16T20:52:42.436Z,47.00
2022-11-16T20:55:11.279Z,55.80
2022-11-16T20:57:39.159Z,42.20
2022-11-16T21:00:08.301Z,50.10
2022-11-16T21:02:36.060Z,55.17
2022-11-16T21:05:06.069Z,55.70
2022-11-16T21:07:34.637Z,53.03
2022-11-16T21:10:21.018Z,47.83
2022-11-16T21:13:06.550Z,60.97
2022-11-16T21:15:34.730Z,60.57
2022-11-16T21:18:02.842Z,60.57
2022-11-16T21:20:32.904Z,70.73
2022-11-16T21:23:00.906Z,72.40
2022-11-16T21:25:29.353Z,67.50
2022-11-16T21:27:58.174Z,58.80
2022-11-16T21:30:25.899Z,56.80
2022-11-16T21:32:54.084Z,61.57
2022-11-16T21:35:23.852Z,60.10
2022-11-16T21:37:53.510Z,64.37
2022-11-16T21:40:21.799Z,61.70
2022-11-16T21:42:50.823Z,60.93
2022-11-16T21:45:18.817Z,67.87
2022-11-16T21:47:47.015Z,64.70
2022-11-16T21:50:32.047Z,64.67
2022-11-16T21:53:01.736Z,62.37
2022-11-16T21:55:29.677Z,37.90
2022-11-16T21:57:58.056Z,53.27
2022-11-16T22:00:26.437Z,53.20
2022-11-16T22:02:54.601Z,57.30
2022-11-16T22:05:40.525Z,48.70
2022-11-16T22:08:11.966Z,54.33
2022-11-16T22:10:39.717Z,57.43
2022-11-16T22:13:07.454Z,50.80
2022-11-16T22:15:36.146Z,51.30
2022-11-16T22:18:04.773Z,52.77
2022-11-16T22:20:33.062Z,52.13
2022-11-16T22:23:02.041Z,46.10
2022-11-16T22:25:33.164Z,40.90
2022-11-16T22:30:51.920Z,54.47
2022-11-16T22:33:20.833Z,42.30
2022-11-16T22:35:48.729Z,45.17
2022-11-16T22:38:16.762Z,41.37
2022-11-16T22:40:52.179Z,43.37
2022-11-16T22:43:20.608Z,48.47
2022-11-16T22:45:48.422Z,43.53
2022-11-16T22:48:20.393Z,43.00
2022-11-16T22:50:48.681Z,44.03
2022-11-16T22:53:16.664Z,46.80
2022-11-16T22:55:44.786Z,48.70
2022-11-16T22:58:13.990Z,45.30
2022-11-16T23:00:43.189Z,40.63
2022-11-16T23:03:11.311Z,48.63
2022-11-16T23:05:39.085Z,48.70
2022-11-16T23:08:07.258Z,47.57
2022-11-16T23:10:55.612Z,43.80
2022-11-16T23:13:42.205Z,50.67
2022-11-16T23:16:10.835Z,46.50
2022-11-16T23:18:39.085Z,50.43
2022-11-16T23:21:24.844Z,46.10
2022-11-16T23:24:20.036Z,43.73
2022-11-16T23:27:07.390Z,47.87
2022-11-16T23:29:36.530Z,52.27
2022-11-16T23:32:05.524Z,46.73
2022-11-16T23:34:33.572Z,48.60
2022-11-16T23:37:03.342Z,52.83
2022-11-16T23:39:31.515Z,57.83
2022-11-16T23:42:17.156Z,56.33
2022-11-16T23:44:46.916Z,52.50
2022-11-16T23:47:14.948Z,44.17
2022-11-16T23:49:43.044Z,59.50
2022-11-16T23:52:11.240Z,61.00
2022-11-16T23:54:39.096Z,58.37
2022-11-16T23:57:07.824Z,51.37
2022-11-16T23:59:36.134Z,50.63
